sensor_id;sensor_type;location;lat;lon;timestamp;P1;durP1;ratioP1;P2;durP2;ratioP2
72478;SDS011;60658;52.246;5.258;2022-10-04T00:00:39;14.52;;;8.80;;
72478;SDS011;60658;52.246;5.258;2022-10-04T00:01:42;16.27;;;9.32;;
72478;SDS011;60658;52.246;5.258;2022-10-04T00:02:44;18.38;;;9.57;;
72478;SDS011;60658;52.246;5.258;2022-10-04T00:03:46;15.57;;;8.55;;
72478;SDS011;60658;52.246;5.258;2022-10-04T00:04:52;16.05;;;8.40;;
72478;SDS011;60658;52.246;5.258;2022-10-04T00:05:53;22.92;;;9.38;;
72478;SDS011;60658;52.246;5.258;2022-10-04T00:06:57;14.70;;;8.77;;
72478;SDS011;60658;52.246;5.258;2022-10-04T00:07:59;15.32;;;8.35;;
72478;SDS011;60658;52.246;5.258;2022-10-04T00:09:03;16.98;;;8.48;;
72478;SDS011;60658;52.246;5.258;2022-10-04T00:10:12;13.73;;;8.40;;
72478;SDS011;60658;52.246;5.258;2022-10-04T00:11:17;15.20;;;8.65;;
72478;SDS011;60658;52.246;5.258;2022-10-04T00:12:20;16.27;;;9.05;;
72478;SDS011;60658;52.246;5.258;2022-10-04T00:13:22;14.52;;;8.68;;
72478;SDS011;60658;52.246;5.258;2022-10-04T00:14:24;15.30;;;8.30;;
72478;SDS011;60658;52.246;5.258;2022-10-04T00:15:26;13.77;;;8.15;;
72478;SDS011;60658;52.246;5.258;2022-10-04T00:16:29;18.55;;;8.93;;
72478;SDS011;60658;52.246;5.258;2022-10-04T00:17:31;18.50;;;8.75;;
72478;SDS011;60658;52.246;5.258;2022-10-04T00:18:36;19.55;;;8.75;;
72478;SDS011;60658;52.246;5.258;2022-10-04T00:19:40;16.80;;;8.32;;
72478;SDS011;60658;52.246;5.258;2022-10-04T00:21:00;15.43;;;8.10;;
72478;SDS011;60658;52.246;5.258;2022-10-04T00:22:09;18.85;;;8.95;;
72478;SDS011;60658;52.246;5.258;2022-10-04T00:23:26;19.63;;;8.93;;
72478;SDS011;60658;52.246;5.258;2022-10-04T00:24:28;13.98;;;8.68;;
72478;SDS011;60658;52.246;5.258;2022-10-04T00:25:33;13.45;;;8.98;;
72478;SDS011;60658;52.246;5.258;2022-10-04T00:29:28;16.48;;;9.60;;
72478;SDS011;60658;52.246;5.258;2022-10-04T00:30:35;19.80;;;9.27;;
72478;SDS011;60658;52.246;5.258;2022-10-04T00:31:37;15.05;;;9.60;;
72478;SDS011;60658;52.246;5.258;2022-10-04T00:33:01;19.20;;;8.93;;
72478;SDS011;60658;52.246;5.258;2022-10-04T00:36:43;14.27;;;8.73;;
72478;SDS011;60658;52.246;5.258;2022-10-04T00:37:55;15.18;;;9.20;;
72478;SDS011;60658;52.246;5.258;2022-10-04T00:40:17;20.02;;;9.75;;
72478;SDS011;60658;52.246;5.258;2022-10-04T00:41:20;15.73;;;9.50;;
72478;SDS011;60658;52.246;5.258;2022-10-04T00:42:35;17.05;;;9.43;;
72478;SDS011;60658;52.246;5.258;2022-10-04T00:43:37;17.30;;;9.43;;
72478;SDS011;60658;52.246;5.258;2022-10-04T00:44:41;15.98;;;8.30;;
72478;SDS011;60658;52.246;5.258;2022-10-04T00:45:43;17.98;;;9.35;;
72478;SDS011;60658;52.246;5.258;2022-10-04T00:46:46;19.35;;;11.10;;
72478;SDS011;60658;52.246;5.258;2022-10-04T00:47:55;15.55;;;9.70;;
72478;SDS011;60658;52.246;5.258;2022-10-04T00:48:57;19.50;;;10.00;;
72478;SDS011;60658;52.246;5.258;2022-10-04T00:50:06;17.02;;;10.20;;
72478;SDS011;60658;52.246;5.258;2022-10-04T00:51:11;15.68;;;9.88;;
72478;SDS011;60658;52.246;5.258;2022-10-04T00:52:14;18.67;;;10.15;;
72478;SDS011;60658;52.246;5.258;2022-10-04T00:53:20;20.58;;;10.27;;
72478;SDS011;60658;52.246;5.258;2022-10-04T00:54:24;16.33;;;8.75;;
72478;SDS011;60658;52.246;5.258;2022-10-04T00:55:30;16.45;;;8.93;;
72478;SDS011;60658;52.246;5.258;2022-10-04T00:56:36;19.58;;;9.85;;
72478;SDS011;60658;52.246;5.258;2022-10-04T00:57:39;16.75;;;9.63;;
72478;SDS011;60658;52.246;5.258;2022-10-04T00:58:44;21.35;;;9.90;;
72478;SDS011;60658;52.246;5.258;2022-10-04T00:59:49;19.60;;;10.35;;
72478;SDS011;60658;52.246;5.258;2022-10-04T01:00:52;18.33;;;10.15;;
72478;SDS011;60658;52.246;5.258;2022-10-04T01:01:55;16.20;;;9.93;;
72478;SDS011;60658;52.246;5.258;2022-10-04T01:02:57;15.93;;;10.45;;
72478;SDS011;60658;52.246;5.258;2022-10-04T01:04:00;18.83;;;10.07;;
72478;SDS011;60658;52.246;5.258;2022-10-04T01:05:03;18.90;;;10.27;;
72478;SDS011;60658;52.246;5.258;2022-10-04T01:06:05;18.25;;;9.88;;
72478;SDS011;60658;52.246;5.258;2022-10-04T01:07:08;20.08;;;9.45;;
72478;SDS011;60658;52.246;5.258;2022-10-04T01:08:11;17.88;;;9.30;;
72478;SDS011;60658;52.246;5.258;2022-10-04T01:09:12;17.70;;;9.70;;
72478;SDS011;60658;52.246;5.258;2022-10-04T01:10:20;18.88;;;9.25;;
72478;SDS011;60658;52.246;5.258;2022-10-04T01:11:33;17.55;;;10.35;;
72478;SDS011;60658;52.246;5.258;2022-10-04T01:12:42;17.92;;;10.40;;
72478;SDS011;60658;52.246;5.258;2022-10-04T01:13:47;18.80;;;9.75;;
72478;SDS011;60658;52.246;5.258;2022-10-04T01:15:03;16.63;;;10.05;;
72478;SDS011;60658;52.246;5.258;2022-10-04T01:16:09;17.88;;;9.95;;
72478;SDS011;60658;52.246;5.258;2022-10-04T01:17:17;17.70;;;9.98;;
72478;SDS011;60658;52.246;5.258;2022-10-04T01:18:27;17.15;;;9.85;;
72478;SDS011;60658;52.246;5.258;2022-10-04T01:19:31;17.85;;;9.30;;
72478;SDS011;60658;52.246;5.258;2022-10-04T01:20:32;17.80;;;8.48;;
72478;SDS011;60658;52.246;5.258;2022-10-04T01:21:38;19.13;;;11.18;;
72478;SDS011;60658;52.246;5.258;2022-10-04T01:22:44;19.08;;;10.30;;
72478;SDS011;60658;52.246;5.258;2022-10-04T01:23:49;15.05;;;10.20;;
72478;SDS011;60658;52.246;5.258;2022-10-04T01:24:50;24.08;;;10.45;;
72478;SDS011;60658;52.246;5.258;2022-10-04T01:25:51;17.73;;;10.70;;
72478;SDS011;60658;52.246;5.258;2022-10-04T01:27:29;23.10;;;11.18;;
72478;SDS011;60658;52.246;5.258;2022-10-04T01:28:37;15.05;;;10.02;;
72478;SDS011;60658;52.246;5.258;2022-10-04T01:29:38;14.30;;;9.90;;
72478;SDS011;60658;52.246;5.258;2022-10-04T01:32:12;17.55;;;10.55;;
72478;SDS011;60658;52.246;5.258;2022-10-04T01:33:12;23.05;;;10.68;;
72478;SDS011;60658;52.246;5.258;2022-10-04T01:34:14;18.95;;;10.73;;
72478;SDS011;60658;52.246;5.258;2022-10-04T01:35:15;17.20;;;10.30;;
72478;SDS011;60658;52.246;5.258;2022-10-04T01:36:16;21.00;;;10.45;;
72478;SDS011;60658;52.246;5.258;2022-10-04T01:37:17;17.60;;;11.63;;
72478;SDS011;60658;52.246;5.258;2022-10-04T01:38:19;16.27;;;10.75;;
72478;SDS011;60658;52.246;5.258;2022-10-04T01:39:21;22.10;;;10.82;;
72478;SDS011;60658;52.246;5.258;2022-10-04T01:40:22;15.00;;;10.35;;
72478;SDS011;60658;52.246;5.258;2022-10-04T01:41:25;14.55;;;10.23;;
72478;SDS011;60658;52.246;5.258;2022-10-04T01:42:28;21.08;;;11.68;;
72478;SDS011;60658;52.246;5.258;2022-10-04T01:43:30;18.10;;;10.32;;
72478;SDS011;60658;52.246;5.258;2022-10-04T01:44:35;19.50;;;11.18;;
72478;SDS011;60658;52.246;5.258;2022-10-04T01:45:39;18.73;;;11.43;;
72478;SDS011;60658;52.246;5.258;2022-10-04T01:46:42;16.85;;;10.82;;
72478;SDS011;60658;52.246;5.258;2022-10-04T01:47:43;18.58;;;10.63;;
72478;SDS011;60658;52.246;5.258;2022-10-04T01:48:44;21.13;;;11.15;;
72478;SDS011;60658;52.246;5.258;2022-10-04T01:49:46;16.40;;;10.98;;
72478;SDS011;60658;52.246;5.258;2022-10-04T01:50:51;18.77;;;10.95;;
72478;SDS011;60658;52.246;5.258;2022-10-04T01:51:55;18.90;;;11.07;;
72478;SDS011;60658;52.246;5.258;2022-10-04T01:53:08;19.88;;;11.25;;
72478;SDS011;60658;52.246;5.258;2022-10-04T01:54:14;19.27;;;11.07;;
72478;SDS011;60658;52.246;5.258;2022-10-04T01:55:18;20.13;;;11.05;;
72478;SDS011;60658;52.246;5.258;2022-10-04T01:56:22;16.58;;;10.52;;
72478;SDS011;60658;52.246;5.258;2022-10-04T01:58:27;17.13;;;11.00;;
72478;SDS011;60658;52.246;5.258;2022-10-04T01:59:30;21.33;;;11.23;;
72478;SDS011;60658;52.246;5.258;2022-10-04T02:00:33;17.98;;;11.35;;
72478;SDS011;60658;52.246;5.258;2022-10-04T02:01:38;17.63;;;10.98;;
72478;SDS011;60658;52.246;5.258;2022-10-04T02:02:40;22.00;;;12.00;;
72478;SDS011;60658;52.246;5.258;2022-10-04T02:03:43;18.33;;;11.77;;
72478;SDS011;60658;52.246;5.258;2022-10-04T02:04:48;20.50;;;12.02;;
72478;SDS011;60658;52.246;5.258;2022-10-04T02:05:50;20.30;;;11.13;;
72478;SDS011;60658;52.246;5.258;2022-10-04T02:06:52;17.80;;;12.25;;
72478;SDS011;60658;52.246;5.258;2022-10-04T02:08:01;17.15;;;11.57;;
72478;SDS011;60658;52.246;5.258;2022-10-04T02:09:05;19.70;;;12.13;;
72478;SDS011;60658;52.246;5.258;2022-10-04T02:10:14;19.75;;;12.32;;
72478;SDS011;60658;52.246;5.258;2022-10-04T02:11:16;18.42;;;11.80;;
72478;SDS011;60658;52.246;5.258;2022-10-04T02:12:18;19.92;;;12.38;;
72478;SDS011;60658;52.246;5.258;2022-10-04T02:13:19;19.98;;;12.20;;
72478;SDS011;60658;52.246;5.258;2022-10-04T02:14:21;21.02;;;12.70;;
72478;SDS011;60658;52.246;5.258;2022-10-04T02:15:23;21.85;;;12.65;;
72478;SDS011;60658;52.246;5.258;2022-10-04T02:16:24;22.27;;;13.02;;
72478;SDS011;60658;52.246;5.258;2022-10-04T02:17:25;21.85;;;12.85;;
72478;SDS011;60658;52.246;5.258;2022-10-04T02:18:27;22.13;;;13.10;;
72478;SDS011;60658;52.246;5.258;2022-10-04T02:19:31;23.88;;;13.25;;
72478;SDS011;60658;52.246;5.258;2022-10-04T02:20:37;19.65;;;12.52;;
72478;SDS011;60658;52.246;5.258;2022-10-04T02:21:38;22.70;;;13.07;;
72478;SDS011;60658;52.246;5.258;2022-10-04T02:22:40;22.85;;;13.48;;
72478;SDS011;60658;52.246;5.258;2022-10-04T02:23:41;20.83;;;13.07;;
72478;SDS011;60658;52.246;5.258;2022-10-04T02:24:42;18.50;;;12.45;;
72478;SDS011;60658;52.246;5.258;2022-10-04T02:25:44;17.90;;;12.40;;
72478;SDS011;60658;52.246;5.258;2022-10-04T02:26:49;22.42;;;12.95;;
72478;SDS011;60658;52.246;5.258;2022-10-04T02:28:50;20.58;;;11.95;;
72478;SDS011;60658;52.246;5.258;2022-10-04T02:29:51;24.63;;;12.65;;
72478;SDS011;60658;52.246;5.258;2022-10-04T02:30:54;21.35;;;13.85;;
72478;SDS011;60658;52.246;5.258;2022-10-04T02:31:55;21.42;;;13.35;;
72478;SDS011;60658;52.246;5.258;2022-10-04T02:32:56;23.70;;;13.55;;
72478;SDS011;60658;52.246;5.258;2022-10-04T02:33:57;19.42;;;13.80;;
72478;SDS011;60658;52.246;5.258;2022-10-04T02:34:58;28.23;;;13.70;;
72478;SDS011;60658;52.246;5.258;2022-10-04T02:35:59;23.27;;;13.73;;
72478;SDS011;60658;52.246;5.258;2022-10-04T02:37:01;27.52;;;14.27;;
72478;SDS011;60658;52.246;5.258;2022-10-04T02:38:03;22.83;;;13.45;;
72478;SDS011;60658;52.246;5.258;2022-10-04T02:39:08;21.10;;;13.88;;
72478;SDS011;60658;52.246;5.258;2022-10-04T02:40:13;27.02;;;14.57;;
72478;SDS011;60658;52.246;5.258;2022-10-04T02:41:19;26.63;;;14.20;;
72478;SDS011;60658;52.246;5.258;2022-10-04T02:42:25;19.67;;;13.43;;
72478;SDS011;60658;52.246;5.258;2022-10-04T02:44:28;21.95;;;13.38;;
72478;SDS011;60658;52.246;5.258;2022-10-04T02:45:34;26.48;;;14.55;;
72478;SDS011;60658;52.246;5.258;2022-10-04T02:46:39;22.13;;;13.85;;
72478;SDS011;60658;52.246;5.258;2022-10-04T02:47:42;22.45;;;13.50;;
72478;SDS011;60658;52.246;5.258;2022-10-04T02:48:44;19.88;;;13.07;;
72478;SDS011;60658;52.246;5.258;2022-10-04T02:49:47;21.63;;;13.38;;
72478;SDS011;60658;52.246;5.258;2022-10-04T02:50:49;25.92;;;13.38;;
72478;SDS011;60658;52.246;5.258;2022-10-04T02:51:52;22.25;;;13.60;;
72478;SDS011;60658;52.246;5.258;2022-10-04T02:52:54;24.33;;;13.73;;
72478;SDS011;60658;52.246;5.258;2022-10-04T02:54:01;22.95;;;14.18;;
72478;SDS011;60658;52.246;5.258;2022-10-04T02:55:05;23.98;;;13.85;;
72478;SDS011;60658;52.246;5.258;2022-10-04T02:56:09;22.80;;;13.50;;
72478;SDS011;60658;52.246;5.258;2022-10-04T02:57:17;21.63;;;13.23;;
72478;SDS011;60658;52.246;5.258;2022-10-04T02:58:19;22.90;;;13.07;;
72478;SDS011;60658;52.246;5.258;2022-10-04T02:59:21;21.40;;;13.15;;
72478;SDS011;60658;52.246;5.258;2022-10-04T03:00:28;21.30;;;13.80;;
72478;SDS011;60658;52.246;5.258;2022-10-04T03:01:38;22.23;;;14.25;;
72478;SDS011;60658;52.246;5.258;2022-10-04T03:02:49;21.73;;;14.73;;
72478;SDS011;60658;52.246;5.258;2022-10-04T03:04:20;19.85;;;14.57;;
72478;SDS011;60658;52.246;5.258;2022-10-04T03:05:22;22.25;;;13.48;;
72478;SDS011;60658;52.246;5.258;2022-10-04T03:06:23;24.23;;;14.18;;
72478;SDS011;60658;52.246;5.258;2022-10-04T03:07:28;29.60;;;14.23;;
72478;SDS011;60658;52.246;5.258;2022-10-04T03:08:30;26.10;;;14.43;;
72478;SDS011;60658;52.246;5.258;2022-10-04T03:09:33;22.77;;;14.10;;
72478;SDS011;60658;52.246;5.258;2022-10-04T03:10:34;22.00;;;14.55;;
72478;SDS011;60658;52.246;5.258;2022-10-04T03:11:36;24.55;;;14.35;;
72478;SDS011;60658;52.246;5.258;2022-10-04T03:12:39;25.13;;;13.88;;
72478;SDS011;60658;52.246;5.258;2022-10-04T03:13:40;24.27;;;14.93;;
72478;SDS011;60658;52.246;5.258;2022-10-04T03:14:43;24.20;;;14.25;;
72478;SDS011;60658;52.246;5.258;2022-10-04T03:15:43;25.15;;;15.88;;
72478;SDS011;60658;52.246;5.258;2022-10-04T03:16:46;25.38;;;15.32;;
72478;SDS011;60658;52.246;5.258;2022-10-04T03:17:47;24.55;;;14.60;;
72478;SDS011;60658;52.246;5.258;2022-10-04T03:18:51;23.17;;;13.02;;
72478;SDS011;60658;52.246;5.258;2022-10-04T03:19:52;30.35;;;16.10;;
72478;SDS011;60658;52.246;5.258;2022-10-04T03:21:03;23.38;;;14.02;;
72478;SDS011;60658;52.246;5.258;2022-10-04T03:22:06;24.73;;;14.98;;
72478;SDS011;60658;52.246;5.258;2022-10-04T03:23:08;26.48;;;14.90;;
72478;SDS011;60658;52.246;5.258;2022-10-04T03:24:09;23.45;;;14.23;;
72478;SDS011;60658;52.246;5.258;2022-10-04T03:25:22;28.00;;;15.80;;
72478;SDS011;60658;52.246;5.258;2022-10-04T03:26:26;26.08;;;14.57;;
72478;SDS011;60658;52.246;5.258;2022-10-04T03:27:28;27.15;;;15.48;;
72478;SDS011;60658;52.246;5.258;2022-10-04T03:28:33;22.50;;;15.32;;
72478;SDS011;60658;52.246;5.258;2022-10-04T03:29:38;21.08;;;14.25;;
72478;SDS011;60658;52.246;5.258;2022-10-04T03:30:41;27.55;;;15.18;;
72478;SDS011;60658;52.246;5.258;2022-10-04T03:31:42;27.17;;;15.38;;
72478;SDS011;60658;52.246;5.258;2022-10-04T03:32:44;23.95;;;15.88;;
72478;SDS011;60658;52.246;5.258;2022-10-04T03:33:53;25.95;;;15.70;;
72478;SDS011;60658;52.246;5.258;2022-10-04T03:34:54;27.27;;;15.57;;
72478;SDS011;60658;52.246;5.258;2022-10-04T03:35:56;26.95;;;15.20;;
72478;SDS011;60658;52.246;5.258;2022-10-04T03:36:57;24.85;;;15.80;;
72478;SDS011;60658;52.246;5.258;2022-10-04T03:37:59;26.92;;;16.75;;
72478;SDS011;60658;52.246;5.258;2022-10-04T03:39:00;27.90;;;16.75;;
72478;SDS011;60658;52.246;5.258;2022-10-04T03:40:07;27.63;;;16.20;;
72478;SDS011;60658;52.246;5.258;2022-10-04T03:41:11;31.73;;;17.25;;
72478;SDS011;60658;52.246;5.258;2022-10-04T03:42:13;21.80;;;14.93;;
72478;SDS011;60658;52.246;5.258;2022-10-04T03:43:16;28.25;;;16.52;;
72478;SDS011;60658;52.246;5.258;2022-10-04T03:44:18;23.88;;;14.73;;
72478;SDS011;60658;52.246;5.258;2022-10-04T03:45:20;32.10;;;16.38;;
72478;SDS011;60658;52.246;5.258;2022-10-04T03:46:23;23.90;;;16.40;;
72478;SDS011;60658;52.246;5.258;2022-10-04T03:47:28;23.92;;;15.10;;
72478;SDS011;60658;52.246;5.258;2022-10-04T03:48:30;31.00;;;16.58;;
72478;SDS011;60658;52.246;5.258;2022-10-04T03:49:34;32.75;;;17.42;;
72478;SDS011;60658;52.246;5.258;2022-10-04T03:50:38;24.88;;;15.73;;
72478;SDS011;60658;52.246;5.258;2022-10-04T03:51:42;28.00;;;16.17;;
72478;SDS011;60658;52.246;5.258;2022-10-04T03:52:43;26.52;;;16.02;;
72478;SDS011;60658;52.246;5.258;2022-10-04T03:53:46;24.20;;;16.02;;
72478;SDS011;60658;52.246;5.258;2022-10-04T03:54:49;23.98;;;14.65;;
72478;SDS011;60658;52.246;5.258;2022-10-04T03:55:50;22.73;;;15.07;;
72478;SDS011;60658;52.246;5.258;2022-10-04T03:56:51;24.13;;;15.45;;
72478;SDS011;60658;52.246;5.258;2022-10-04T03:57:52;28.92;;;16.65;;
72478;SDS011;60658;52.246;5.258;2022-10-04T03:58:53;29.50;;;17.05;;
72478;SDS011;60658;52.246;5.258;2022-10-04T03:59:58;30.35;;;16.80;;
72478;SDS011;60658;52.246;5.258;2022-10-04T04:01:04;25.15;;;17.15;;
72478;SDS011;60658;52.246;5.258;2022-10-04T04:02:10;33.17;;;16.95;;
72478;SDS011;60658;52.246;5.258;2022-10-04T04:03:14;28.30;;;17.83;;
72478;SDS011;60658;52.246;5.258;2022-10-04T04:04:16;27.15;;;17.55;;
72478;SDS011;60658;52.246;5.258;2022-10-04T04:05:19;27.25;;;17.27;;
72478;SDS011;60658;52.246;5.258;2022-10-04T04:06:21;31.67;;;17.10;;
72478;SDS011;60658;52.246;5.258;2022-10-04T04:07:23;30.83;;;17.25;;
72478;SDS011;60658;52.246;5.258;2022-10-04T04:08:26;27.27;;;17.10;;
72478;SDS011;60658;52.246;5.258;2022-10-04T04:09:33;31.00;;;16.70;;
72478;SDS011;60658;52.246;5.258;2022-10-04T04:10:36;26.25;;;16.70;;
72478;SDS011;60658;52.246;5.258;2022-10-04T04:11:37;27.00;;;16.60;;
72478;SDS011;60658;52.246;5.258;2022-10-04T04:12:39;32.28;;;17.63;;
72478;SDS011;60658;52.246;5.258;2022-10-04T04:13:42;26.45;;;16.38;;
72478;SDS011;60658;52.246;5.258;2022-10-04T04:14:45;28.70;;;17.70;;
72478;SDS011;60658;52.246;5.258;2022-10-04T04:15:50;27.35;;;17.15;;
72478;SDS011;60658;52.246;5.258;2022-10-04T04:16:51;29.05;;;17.30;;
72478;SDS011;60658;52.246;5.258;2022-10-04T04:17:51;28.70;;;16.77;;
72478;SDS011;60658;52.246;5.258;2022-10-04T04:18:54;31.73;;;17.85;;
72478;SDS011;60658;52.246;5.258;2022-10-04T04:19:58;29.35;;;16.45;;
72478;SDS011;60658;52.246;5.258;2022-10-04T04:21:00;28.70;;;18.25;;
72478;SDS011;60658;52.246;5.258;2022-10-04T04:22:01;25.25;;;15.18;;
72478;SDS011;60658;52.246;5.258;2022-10-04T04:23:04;24.58;;;15.35;;
72478;SDS011;60658;52.246;5.258;2022-10-04T04:24:05;27.60;;;16.88;;
72478;SDS011;60658;52.246;5.258;2022-10-04T04:25:12;27.70;;;16.65;;
72478;SDS011;60658;52.246;5.258;2022-10-04T04:26:23;28.58;;;16.42;;
72478;SDS011;60658;52.246;5.258;2022-10-04T04:27:25;27.55;;;16.63;;
72478;SDS011;60658;52.246;5.258;2022-10-04T04:28:26;28.23;;;17.52;;
72478;SDS011;60658;52.246;5.258;2022-10-04T04:29:30;28.77;;;16.60;;
72478;SDS011;60658;52.246;5.258;2022-10-04T04:30:50;28.23;;;16.73;;
72478;SDS011;60658;52.246;5.258;2022-10-04T04:32:03;28.15;;;17.65;;
72478;SDS011;60658;52.246;5.258;2022-10-04T04:33:15;27.77;;;17.13;;
72478;SDS011;60658;52.246;5.258;2022-10-04T04:34:31;27.88;;;17.15;;
72478;SDS011;60658;52.246;5.258;2022-10-04T04:35:38;25.48;;;16.58;;
72478;SDS011;60658;52.246;5.258;2022-10-04T04:36:42;31.50;;;17.80;;
72478;SDS011;60658;52.246;5.258;2022-10-04T04:39:24;27.83;;;16.85;;
72478;SDS011;60658;52.246;5.258;2022-10-04T04:41:39;29.25;;;16.88;;
72478;SDS011;60658;52.246;5.258;2022-10-04T04:43:48;28.08;;;16.02;;
72478;SDS011;60658;52.246;5.258;2022-10-04T04:44:52;25.33;;;16.45;;
72478;SDS011;60658;52.246;5.258;2022-10-04T04:45:55;29.73;;;17.60;;
72478;SDS011;60658;52.246;5.258;2022-10-04T04:46:59;27.67;;;17.05;;
72478;SDS011;60658;52.246;5.258;2022-10-04T04:48:00;29.30;;;17.52;;
72478;SDS011;60658;52.246;5.258;2022-10-04T04:49:24;29.52;;;15.57;;
72478;SDS011;60658;52.246;5.258;2022-10-04T04:50:34;27.05;;;16.55;;
72478;SDS011;60658;52.246;5.258;2022-10-04T04:51:38;35.00;;;18.52;;
72478;SDS011;60658;52.246;5.258;2022-10-04T04:52:42;30.30;;;18.25;;
72478;SDS011;60658;52.246;5.258;2022-10-04T04:53:58;29.75;;;19.17;;
72478;SDS011;60658;52.246;5.258;2022-10-04T04:55:03;27.92;;;17.25;;
72478;SDS011;60658;52.246;5.258;2022-10-04T04:56:05;29.55;;;17.60;;
72478;SDS011;60658;52.246;5.258;2022-10-04T04:57:13;30.67;;;18.45;;
72478;SDS011;60658;52.246;5.258;2022-10-04T04:58:17;33.85;;;18.98;;
72478;SDS011;60658;52.246;5.258;2022-10-04T04:59:20;30.23;;;18.95;;
72478;SDS011;60658;52.246;5.258;2022-10-04T05:00:22;29.95;;;18.33;;
72478;SDS011;60658;52.246;5.258;2022-10-04T05:01:33;29.00;;;18.02;;
72478;SDS011;60658;52.246;5.258;2022-10-04T05:02:43;25.17;;;17.20;;
72478;SDS011;60658;52.246;5.258;2022-10-04T05:04:00;33.67;;;19.23;;
72478;SDS011;60658;52.246;5.258;2022-10-04T05:05:14;24.95;;;16.45;;
72478;SDS011;60658;52.246;5.258;2022-10-04T05:06:21;25.83;;;17.50;;
72478;SDS011;60658;52.246;5.258;2022-10-04T05:07:27;28.65;;;18.27;;
72478;SDS011;60658;52.246;5.258;2022-10-04T05:08:31;27.15;;;18.80;;
72478;SDS011;60658;52.246;5.258;2022-10-04T05:09:35;31.00;;;18.00;;
72478;SDS011;60658;52.246;5.258;2022-10-04T05:10:46;28.90;;;18.13;;
72478;SDS011;60658;52.246;5.258;2022-10-04T05:12:01;28.15;;;18.60;;
72478;SDS011;60658;52.246;5.258;2022-10-04T05:13:09;26.85;;;17.95;;
72478;SDS011;60658;52.246;5.258;2022-10-04T05:14:15;30.90;;;17.52;;
72478;SDS011;60658;52.246;5.258;2022-10-04T05:15:35;29.20;;;18.38;;
72478;SDS011;60658;52.246;5.258;2022-10-04T05:16:49;34.33;;;18.45;;
72478;SDS011;60658;52.246;5.258;2022-10-04T05:18:11;28.02;;;17.23;;
72478;SDS011;60658;52.246;5.258;2022-10-04T05:19:23;29.42;;;18.25;;
72478;SDS011;60658;52.246;5.258;2022-10-04T05:21:53;29.58;;;17.67;;
72478;SDS011;60658;52.246;5.258;2022-10-04T05:25:22;28.00;;;16.17;;
72478;SDS011;60658;52.246;5.258;2022-10-04T05:28:00;28.58;;;16.40;;
72478;SDS011;60658;52.246;5.258;2022-10-04T05:29:10;29.88;;;17.38;;
72478;SDS011;60658;52.246;5.258;2022-10-04T05:32:15;32.45;;;18.58;;
72478;SDS011;60658;52.246;5.258;2022-10-04T05:33:36;35.35;;;18.80;;
72478;SDS011;60658;52.246;5.258;2022-10-04T05:36:06;30.98;;;17.95;;
72478;SDS011;60658;52.246;5.258;2022-10-04T05:39:56;33.45;;;18.77;;
72478;SDS011;60658;52.246;5.258;2022-10-04T05:40:52;34.88;;;17.40;;
72478;SDS011;60658;52.246;5.258;2022-10-04T05:42:27;29.65;;;16.85;;
72478;SDS011;60658;52.246;5.258;2022-10-04T05:43:50;31.95;;;18.65;;
72478;SDS011;60658;52.246;5.258;2022-10-04T05:44:55;29.13;;;18.45;;
72478;SDS011;60658;52.246;5.258;2022-10-04T05:47:19;30.77;;;18.15;;
72478;SDS011;60658;52.246;5.258;2022-10-04T05:48:25;29.83;;;19.70;;
72478;SDS011;60658;52.246;5.258;2022-10-04T05:49:32;30.58;;;18.30;;
72478;SDS011;60658;52.246;5.258;2022-10-04T05:50:43;27.10;;;17.48;;
72478;SDS011;60658;52.246;5.258;2022-10-04T05:52:05;29.88;;;18.02;;
72478;SDS011;60658;52.246;5.258;2022-10-04T05:53:26;32.42;;;19.83;;
72478;SDS011;60658;52.246;5.258;2022-10-04T05:54:31;33.90;;;18.83;;
72478;SDS011;60658;52.246;5.258;2022-10-04T05:55:38;32.05;;;19.63;;
72478;SDS011;60658;52.246;5.258;2022-10-04T05:56:52;31.73;;;18.20;;
72478;SDS011;60658;52.246;5.258;2022-10-04T05:59:41;29.00;;;18.10;;
72478;SDS011;60658;52.246;5.258;2022-10-04T06:00:55;32.05;;;18.00;;
72478;SDS011;60658;52.246;5.258;2022-10-04T06:02:05;31.60;;;18.40;;
72478;SDS011;60658;52.246;5.258;2022-10-04T06:03:25;27.85;;;17.15;;
72478;SDS011;60658;52.246;5.258;2022-10-04T06:04:43;27.63;;;17.48;;
72478;SDS011;60658;52.246;5.258;2022-10-04T06:05:50;26.95;;;17.20;;
72478;SDS011;60658;52.246;5.258;2022-10-04T06:06:58;31.13;;;18.02;;
72478;SDS011;60658;52.246;5.258;2022-10-04T06:08:02;32.47;;;19.33;;
72478;SDS011;60658;52.246;5.258;2022-10-04T06:09:33;29.95;;;16.75;;
72478;SDS011;60658;52.246;5.258;2022-10-04T06:12:00;30.17;;;16.52;;
72478;SDS011;60658;52.246;5.258;2022-10-04T06:13:15;29.88;;;16.92;;
72478;SDS011;60658;52.246;5.258;2022-10-04T06:16:03;33.63;;;18.60;;
72478;SDS011;60658;52.246;5.258;2022-10-04T06:18:43;32.25;;;18.80;;
72478;SDS011;60658;52.246;5.258;2022-10-04T06:22:20;108.18;;;24.48;;
72478;SDS011;60658;52.246;5.258;2022-10-04T06:23:29;99.25;;;24.58;;
72478;SDS011;60658;52.246;5.258;2022-10-04T06:24:31;54.28;;;20.95;;
72478;SDS011;60658;52.246;5.258;2022-10-04T06:25:37;45.38;;;21.65;;
72478;SDS011;60658;52.246;5.258;2022-10-04T06:26:43;35.58;;;19.52;;
72478;SDS011;60658;52.246;5.258;2022-10-04T06:27:47;34.20;;;18.45;;
72478;SDS011;60658;52.246;5.258;2022-10-04T06:29:15;27.67;;;16.98;;
72478;SDS011;60658;52.246;5.258;2022-10-04T06:30:17;29.65;;;18.15;;
72478;SDS011;60658;52.246;5.258;2022-10-04T06:31:26;25.45;;;18.10;;
72478;SDS011;60658;52.246;5.258;2022-10-04T06:32:53;29.48;;;17.70;;
72478;SDS011;60658;52.246;5.258;2022-10-04T06:38:14;23.08;;;16.02;;
72478;SDS011;60658;52.246;5.258;2022-10-04T06:40:48;25.27;;;16.00;;
72478;SDS011;60658;52.246;5.258;2022-10-04T06:42:08;26.40;;;16.63;;
72478;SDS011;60658;52.246;5.258;2022-10-04T06:43:30;29.65;;;16.73;;
72478;SDS011;60658;52.246;5.258;2022-10-04T06:44:52;24.25;;;15.18;;
72478;SDS011;60658;52.246;5.258;2022-10-04T06:46:21;26.38;;;15.25;;
72478;SDS011;60658;52.246;5.258;2022-10-04T06:47:31;31.00;;;16.90;;
72478;SDS011;60658;52.246;5.258;2022-10-04T06:48:50;35.72;;;16.48;;
72478;SDS011;60658;52.246;5.258;2022-10-04T06:49:59;74.63;;;22.60;;
72478;SDS011;60658;52.246;5.258;2022-10-04T06:51:14;37.75;;;15.80;;
72478;SDS011;60658;52.246;5.258;2022-10-04T07:02:51;24.98;;;14.65;;
72478;SDS011;60658;52.246;5.258;2022-10-04T07:08:57;25.77;;;14.63;;
72478;SDS011;60658;52.246;5.258;2022-10-04T07:11:29;23.75;;;13.00;;
72478;SDS011;60658;52.246;5.258;2022-10-04T07:14:25;22.35;;;13.43;;
72478;SDS011;60658;52.246;5.258;2022-10-04T07:16:02;25.00;;;14.05;;
72478;SDS011;60658;52.246;5.258;2022-10-04T07:17:44;24.40;;;13.48;;
72478;SDS011;60658;52.246;5.258;2022-10-04T07:28:13;22.77;;;13.25;;
72478;SDS011;60658;52.246;5.258;2022-10-04T07:33:47;21.38;;;12.38;;
72478;SDS011;60658;52.246;5.258;2022-10-04T07:35:25;22.63;;;12.77;;
72478;SDS011;60658;52.246;5.258;2022-10-04T07:36:44;20.92;;;11.93;;
72478;SDS011;60658;52.246;5.258;2022-10-04T07:37:58;20.65;;;13.27;;
72478;SDS011;60658;52.246;5.258;2022-10-04T07:41:49;19.85;;;11.73;;
72478;SDS011;60658;52.246;5.258;2022-10-04T07:44:31;20.35;;;11.43;;
72478;SDS011;60658;52.246;5.258;2022-10-04T07:47:35;20.45;;;12.25;;
72478;SDS011;60658;52.246;5.258;2022-10-04T07:52:25;18.52;;;11.18;;
72478;SDS011;60658;52.246;5.258;2022-10-04T07:53:56;20.20;;;10.98;;